sensor_id;sensor_type;location;lat;lon;timestamp;P1;durP1;ratioP1;P2;durP2;ratioP2
67100;SDS011;54019;61.746;16.106;2022-11-20T00:02:19;0.32;;;0.30;;
67100;SDS011;54019;61.746;16.106;2022-11-20T00:04:45;0.55;;;0.40;;
67100;SDS011;54019;61.746;16.106;2022-11-20T00:07:10;0.22;;;0.22;;
67100;SDS011;54019;61.746;16.106;2022-11-20T00:09:36;0.30;;;0.30;;
67100;SDS011;54019;61.746;16.106;2022-11-20T00:12:02;0.40;;;0.40;;
67100;SDS011;54019;61.746;16.106;2022-11-20T00:14:30;0.30;;;0.30;;
67100;SDS011;54019;61.746;16.106;2022-11-20T00:16:55;0.50;;;0.32;;
67100;SDS011;54019;61.746;16.106;2022-11-20T00:19:21;0.30;;;0.30;;
67100;SDS011;54019;61.746;16.106;2022-11-20T00:21:47;0.32;;;0.32;;
67100;SDS011;54019;61.746;16.106;2022-11-20T00:24:13;0.30;;;0.30;;
67100;SDS011;54019;61.746;16.106;2022-11-20T00:26:38;2.13;;;0.32;;
67100;SDS011;54019;61.746;16.106;2022-11-20T00:29:04;0.30;;;0.30;;
67100;SDS011;54019;61.746;16.106;2022-11-20T00:31:31;2.25;;;0.40;;
67100;SDS011;54019;61.746;16.106;2022-11-20T00:33:57;1.55;;;0.40;;
67100;SDS011;54019;61.746;16.106;2022-11-20T00:36:23;2.00;;;0.40;;
67100;SDS011;54019;61.746;16.106;2022-11-20T00:38:51;1.65;;;0.50;;
67100;SDS011;54019;61.746;16.106;2022-11-20T00:41:17;0.50;;;0.40;;
67100;SDS011;54019;61.746;16.106;2022-11-20T00:43:43;1.85;;;0.40;;
67100;SDS011;54019;61.746;16.106;2022-11-20T00:46:09;0.50;;;0.30;;
67100;SDS011;54019;61.746;16.106;2022-11-20T00:48:40;0.47;;;0.40;;
67100;SDS011;54019;61.746;16.106;2022-11-20T00:51:06;0.65;;;0.40;;
67100;SDS011;54019;61.746;16.106;2022-11-20T00:53:31;0.38;;;0.38;;
67100;SDS011;54019;61.746;16.106;2022-11-20T00:55:58;0.50;;;0.50;;
67100;SDS011;54019;61.746;16.106;2022-11-20T00:58:29;0.50;;;0.40;;
67100;SDS011;54019;61.746;16.106;2022-11-20T01:00:59;0.40;;;0.40;;
67100;SDS011;54019;61.746;16.106;2022-11-20T01:03:25;0.98;;;0.38;;
67100;SDS011;54019;61.746;16.106;2022-11-20T01:05:52;0.30;;;0.30;;
67100;SDS011;54019;61.746;16.106;2022-11-20T01:10:49;0.40;;;0.30;;
67100;SDS011;54019;61.746;16.106;2022-11-20T01:13:15;1.70;;;0.40;;
67100;SDS011;54019;61.746;16.106;2022-11-20T01:15:41;0.40;;;0.40;;
67100;SDS011;54019;61.746;16.106;2022-11-20T01:18:07;0.30;;;0.30;;
67100;SDS011;54019;61.746;16.106;2022-11-20T01:20:34;0.47;;;0.47;;
67100;SDS011;54019;61.746;16.106;2022-11-20T01:23:01;0.40;;;0.40;;
67100;SDS011;54019;61.746;16.106;2022-11-20T01:25:27;1.33;;;0.43;;
67100;SDS011;54019;61.746;16.106;2022-11-20T01:27:53;0.70;;;0.38;;
67100;SDS011;54019;61.746;16.106;2022-11-20T01:30:18;0.47;;;0.47;;
67100;SDS011;54019;61.746;16.106;2022-11-20T01:32:44;0.40;;;0.40;;
67100;SDS011;54019;61.746;16.106;2022-11-20T01:35:10;0.45;;;0.43;;
67100;SDS011;54019;61.746;16.106;2022-11-20T01:37:36;0.30;;;0.30;;
67100;SDS011;54019;61.746;16.106;2022-11-20T01:40:03;0.40;;;0.40;;
67100;SDS011;54019;61.746;16.106;2022-11-20T01:42:30;0.30;;;0.30;;
67100;SDS011;54019;61.746;16.106;2022-11-20T01:44:57;0.38;;;0.38;;
67100;SDS011;54019;61.746;16.106;2022-11-20T01:47:26;0.40;;;0.40;;
67100;SDS011;54019;61.746;16.106;2022-11-20T01:49:56;0.28;;;0.28;;
67100;SDS011;54019;61.746;16.106;2022-11-20T01:52:25;1.10;;;0.38;;
67100;SDS011;54019;61.746;16.106;2022-11-20T01:54:56;0.30;;;0.30;;
67100;SDS011;54019;61.746;16.106;2022-11-20T01:57:26;0.43;;;0.40;;
67100;SDS011;54019;61.746;16.106;2022-11-20T01:59:56;0.70;;;0.40;;
67100;SDS011;54019;61.746;16.106;2022-11-20T02:02:26;1.27;;;0.40;;
67100;SDS011;54019;61.746;16.106;2022-11-20T02:04:53;0.75;;;0.47;;
67100;SDS011;54019;61.746;16.106;2022-11-20T02:07:21;0.73;;;0.60;;
67100;SDS011;54019;61.746;16.106;2022-11-20T02:09:48;0.30;;;0.30;;
67100;SDS011;54019;61.746;16.106;2022-11-20T02:12:14;0.38;;;0.30;;
67100;SDS011;54019;61.746;16.106;2022-11-20T02:14:41;0.40;;;0.40;;
67100;SDS011;54019;61.746;16.106;2022-11-20T02:17:07;2.60;;;0.50;;
67100;SDS011;54019;61.746;16.106;2022-11-20T02:19:33;0.30;;;0.30;;
67100;SDS011;54019;61.746;16.106;2022-11-20T02:22:00;0.30;;;0.30;;
67100;SDS011;54019;61.746;16.106;2022-11-20T02:24:32;0.57;;;0.57;;
67100;SDS011;54019;61.746;16.106;2022-11-20T02:26:59;0.40;;;0.40;;
67100;SDS011;54019;61.746;16.106;2022-11-20T02:29:27;0.50;;;0.50;;
67100;SDS011;54019;61.746;16.106;2022-11-20T02:31:57;0.40;;;0.40;;
67100;SDS011;54019;61.746;16.106;2022-11-20T02:34:25;0.40;;;0.40;;
67100;SDS011;54019;61.746;16.106;2022-11-20T02:36:51;0.40;;;0.40;;
67100;SDS011;54019;61.746;16.106;2022-11-20T02:39:18;0.40;;;0.40;;
67100;SDS011;54019;61.746;16.106;2022-11-20T02:41:47;1.13;;;0.47;;
67100;SDS011;54019;61.746;16.106;2022-11-20T02:44:12;0.45;;;0.45;;
67100;SDS011;54019;61.746;16.106;2022-11-20T02:46:38;0.88;;;0.60;;
67100;SDS011;54019;61.746;16.106;2022-11-20T02:49:04;0.50;;;0.50;;
67100;SDS011;54019;61.746;16.106;2022-11-20T02:51:30;0.50;;;0.50;;
67100;SDS011;54019;61.746;16.106;2022-11-20T02:53:56;2.47;;;0.47;;
67100;SDS011;54019;61.746;16.106;2022-11-20T02:56:22;0.43;;;0.40;;
67100;SDS011;54019;61.746;16.106;2022-11-20T02:58:50;1.13;;;0.50;;
67100;SDS011;54019;61.746;16.106;2022-11-20T03:01:15;0.65;;;0.40;;
67100;SDS011;54019;61.746;16.106;2022-11-20T03:03:41;0.95;;;0.50;;
67100;SDS011;54019;61.746;16.106;2022-11-20T03:06:07;0.70;;;0.70;;
67100;SDS011;54019;61.746;16.106;2022-11-20T03:08:33;0.60;;;0.60;;
67100;SDS011;54019;61.746;16.106;2022-11-20T03:11:01;0.73;;;0.60;;
67100;SDS011;54019;61.746;16.106;2022-11-20T03:13:28;1.52;;;0.60;;
67100;SDS011;54019;61.746;16.106;2022-11-20T03:15:55;0.50;;;0.50;;
67100;SDS011;54019;61.746;16.106;2022-11-20T03:18:21;0.60;;;0.60;;
67100;SDS011;54019;61.746;16.106;2022-11-20T03:20:47;0.65;;;0.60;;
67100;SDS011;54019;61.746;16.106;2022-11-20T03:23:13;0.60;;;0.60;;
67100;SDS011;54019;61.746;16.106;2022-11-20T03:25:38;0.63;;;0.63;;
67100;SDS011;54019;61.746;16.106;2022-11-20T03:28:04;1.10;;;0.60;;
67100;SDS011;54019;61.746;16.106;2022-11-20T03:30:30;2.05;;;0.90;;
67100;SDS011;54019;61.746;16.106;2022-11-20T03:32:57;0.70;;;0.70;;
67100;SDS011;54019;61.746;16.106;2022-11-20T03:35:23;0.70;;;0.70;;
67100;SDS011;54019;61.746;16.106;2022-11-20T03:37:49;0.68;;;0.68;;
67100;SDS011;54019;61.746;16.106;2022-11-20T03:40:14;1.70;;;0.90;;
67100;SDS011;54019;61.746;16.106;2022-11-20T03:42:40;1.15;;;0.73;;
67100;SDS011;54019;61.746;16.106;2022-11-20T03:45:06;0.60;;;0.60;;
67100;SDS011;54019;61.746;16.106;2022-11-20T03:47:33;1.92;;;0.88;;
67100;SDS011;54019;61.746;16.106;2022-11-20T03:50:00;0.88;;;0.70;;
67100;SDS011;54019;61.746;16.106;2022-11-20T03:52:26;0.88;;;0.70;;
67100;SDS011;54019;61.746;16.106;2022-11-20T03:54:51;0.80;;;0.80;;
67100;SDS011;54019;61.746;16.106;2022-11-20T03:57:17;1.17;;;0.70;;
67100;SDS011;54019;61.746;16.106;2022-11-20T03:59:43;0.77;;;0.77;;
67100;SDS011;54019;61.746;16.106;2022-11-20T04:02:09;1.73;;;1.40;;
67100;SDS011;54019;61.746;16.106;2022-11-20T04:04:35;2.45;;;1.50;;
67100;SDS011;54019;61.746;16.106;2022-11-20T04:07:02;2.78;;;1.20;;
67100;SDS011;54019;61.746;16.106;2022-11-20T04:09:28;3.10;;;1.40;;
67100;SDS011;54019;61.746;16.106;2022-11-20T04:11:53;2.03;;;1.15;;
67100;SDS011;54019;61.746;16.106;2022-11-20T04:14:19;2.08;;;1.40;;
67100;SDS011;54019;61.746;16.106;2022-11-20T04:16:45;3.10;;;1.55;;
67100;SDS011;54019;61.746;16.106;2022-11-20T04:19:12;3.55;;;1.50;;
67100;SDS011;54019;61.746;16.106;2022-11-20T04:21:40;2.17;;;1.42;;
67100;SDS011;54019;61.746;16.106;2022-11-20T04:24:08;2.85;;;1.58;;
67100;SDS011;54019;61.746;16.106;2022-11-20T04:26:34;3.97;;;1.42;;
67100;SDS011;54019;61.746;16.106;2022-11-20T04:29:00;2.63;;;1.63;;
67100;SDS011;54019;61.746;16.106;2022-11-20T04:31:26;3.20;;;1.70;;
67100;SDS011;54019;61.746;16.106;2022-11-20T04:33:53;2.45;;;1.70;;
67100;SDS011;54019;61.746;16.106;2022-11-20T04:36:20;2.05;;;1.60;;
67100;SDS011;54019;61.746;16.106;2022-11-20T04:38:50;2.63;;;1.65;;
67100;SDS011;54019;61.746;16.106;2022-11-20T04:41:18;2.60;;;1.45;;
67100;SDS011;54019;61.746;16.106;2022-11-20T04:43:45;3.20;;;1.58;;
67100;SDS011;54019;61.746;16.106;2022-11-20T04:46:12;2.08;;;1.48;;
67100;SDS011;54019;61.746;16.106;2022-11-20T04:48:38;3.53;;;1.55;;
67100;SDS011;54019;61.746;16.106;2022-11-20T04:51:03;2.83;;;1.65;;
67100;SDS011;54019;61.746;16.106;2022-11-20T04:53:30;1.77;;;1.35;;
67100;SDS011;54019;61.746;16.106;2022-11-20T04:55:59;3.58;;;1.60;;
67100;SDS011;54019;61.746;16.106;2022-11-20T04:58:26;1.98;;;1.50;;
67100;SDS011;54019;61.746;16.106;2022-11-20T05:00:52;1.52;;;1.30;;
67100;SDS011;54019;61.746;16.106;2022-11-20T05:03:18;1.98;;;1.33;;
67100;SDS011;54019;61.746;16.106;2022-11-20T05:05:44;2.03;;;1.35;;
67100;SDS011;54019;61.746;16.106;2022-11-20T05:08:09;1.30;;;1.20;;
67100;SDS011;54019;61.746;16.106;2022-11-20T05:10:35;1.95;;;1.35;;
67100;SDS011;54019;61.746;16.106;2022-11-20T05:13:01;3.20;;;1.40;;
67100;SDS011;54019;61.746;16.106;2022-11-20T05:15:28;2.15;;;1.33;;
67100;SDS011;54019;61.746;16.106;2022-11-20T05:17:54;1.30;;;1.10;;
67100;SDS011;54019;61.746;16.106;2022-11-20T05:20:20;2.05;;;1.20;;
67100;SDS011;54019;61.746;16.106;2022-11-20T05:22:46;2.22;;;1.33;;
67100;SDS011;54019;61.746;16.106;2022-11-20T05:25:11;2.25;;;1.40;;
67100;SDS011;54019;61.746;16.106;2022-11-20T05:27:37;2.42;;;1.30;;
67100;SDS011;54019;61.746;16.106;2022-11-20T05:30:04;1.67;;;1.35;;
67100;SDS011;54019;61.746;16.106;2022-11-20T05:32:32;1.67;;;1.10;;
67100;SDS011;54019;61.746;16.106;2022-11-20T05:34:59;1.33;;;1.13;;
67100;SDS011;54019;61.746;16.106;2022-11-20T05:37:25;1.25;;;0.90;;
67100;SDS011;54019;61.746;16.106;2022-11-20T05:39:51;1.65;;;1.27;;
67100;SDS011;54019;61.746;16.106;2022-11-20T05:42:17;2.10;;;1.00;;
67100;SDS011;54019;61.746;16.106;2022-11-20T05:44:43;2.55;;;1.10;;
67100;SDS011;54019;61.746;16.106;2022-11-20T05:47:08;1.70;;;1.13;;
67100;SDS011;54019;61.746;16.106;2022-11-20T05:49:36;2.05;;;1.10;;
67100;SDS011;54019;61.746;16.106;2022-11-20T05:52:01;1.15;;;0.90;;
67100;SDS011;54019;61.746;16.106;2022-11-20T05:54:27;1.60;;;1.10;;
67100;SDS011;54019;61.746;16.106;2022-11-20T05:56:53;1.25;;;1.00;;
67100;SDS011;54019;61.746;16.106;2022-11-20T05:59:19;1.40;;;1.20;;
67100;SDS011;54019;61.746;16.106;2022-11-20T06:01:45;1.90;;;1.15;;
67100;SDS011;54019;61.746;16.106;2022-11-20T06:04:11;1.70;;;1.08;;
67100;SDS011;54019;61.746;16.106;2022-11-20T06:06:38;1.60;;;1.00;;
67100;SDS011;54019;61.746;16.106;2022-11-20T06:09:04;1.23;;;0.70;;
67100;SDS011;54019;61.746;16.106;2022-11-20T06:11:29;3.13;;;0.73;;
67100;SDS011;54019;61.746;16.106;2022-11-20T06:13:55;1.77;;;1.08;;
67100;SDS011;54019;61.746;16.106;2022-11-20T06:16:21;1.23;;;0.90;;
67100;SDS011;54019;61.746;16.106;2022-11-20T06:18:47;1.33;;;0.90;;
67100;SDS011;54019;61.746;16.106;2022-11-20T06:21:14;1.38;;;0.90;;
67100;SDS011;54019;61.746;16.106;2022-11-20T06:23:42;1.00;;;0.90;;
67100;SDS011;54019;61.746;16.106;2022-11-20T06:26:09;1.30;;;0.65;;
67100;SDS011;54019;61.746;16.106;2022-11-20T06:28:36;1.58;;;0.85;;
67100;SDS011;54019;61.746;16.106;2022-11-20T06:31:02;1.05;;;0.95;;
67100;SDS011;54019;61.746;16.106;2022-11-20T06:33:28;1.80;;;0.73;;
67100;SDS011;54019;61.746;16.106;2022-11-20T06:35:56;1.95;;;0.80;;
67100;SDS011;54019;61.746;16.106;2022-11-20T06:38:22;0.80;;;0.70;;
67100;SDS011;54019;61.746;16.106;2022-11-20T06:40:49;0.70;;;0.70;;
67100;SDS011;54019;61.746;16.106;2022-11-20T06:43:15;0.90;;;0.60;;
67100;SDS011;54019;61.746;16.106;2022-11-20T06:45:40;1.17;;;0.60;;
67100;SDS011;54019;61.746;16.106;2022-11-20T06:48:06;1.23;;;0.70;;
67100;SDS011;54019;61.746;16.106;2022-11-20T06:50:32;1.45;;;0.70;;
67100;SDS011;54019;61.746;16.106;2022-11-20T06:53:00;0.63;;;0.60;;
67100;SDS011;54019;61.746;16.106;2022-11-20T06:55:26;0.70;;;0.60;;
67100;SDS011;54019;61.746;16.106;2022-11-20T06:57:53;0.93;;;0.70;;
67100;SDS011;54019;61.746;16.106;2022-11-20T07:00:19;0.60;;;0.60;;
67100;SDS011;54019;61.746;16.106;2022-11-20T07:02:45;0.70;;;0.60;;
67100;SDS011;54019;61.746;16.106;2022-11-20T07:05:10;0.88;;;0.60;;
67100;SDS011;54019;61.746;16.106;2022-11-20T07:07:36;0.60;;;0.60;;
67100;SDS011;54019;61.746;16.106;2022-11-20T07:10:02;0.60;;;0.60;;
67100;SDS011;54019;61.746;16.106;2022-11-20T07:12:29;0.75;;;0.52;;
67100;SDS011;54019;61.746;16.106;2022-11-20T07:14:56;1.58;;;0.80;;
67100;SDS011;54019;61.746;16.106;2022-11-20T07:17:22;0.50;;;0.50;;
67100;SDS011;54019;61.746;16.106;2022-11-20T07:19:48;0.50;;;0.50;;
67100;SDS011;54019;61.746;16.106;2022-11-20T07:22:14;1.17;;;0.50;;
67100;SDS011;54019;61.746;16.106;2022-11-20T07:24:40;1.48;;;0.60;;
67100;SDS011;54019;61.746;16.106;2022-11-20T07:27:05;0.80;;;0.57;;
67100;SDS011;54019;61.746;16.106;2022-11-20T07:29:31;0.90;;;0.70;;
67100;SDS011;54019;61.746;16.106;2022-11-20T07:31:58;0.55;;;0.52;;
67100;SDS011;54019;61.746;16.106;2022-11-20T07:34:24;2.83;;;0.75;;
67100;SDS011;54019;61.746;16.106;2022-11-20T07:36:50;1.90;;;0.70;;
67100;SDS011;54019;61.746;16.106;2022-11-20T07:39:16;1.75;;;0.68;;
67100;SDS011;54019;61.746;16.106;2022-11-20T07:41:41;0.60;;;0.60;;
67100;SDS011;54019;61.746;16.106;2022-11-20T07:44:07;1.85;;;0.40;;
67100;SDS011;54019;61.746;16.106;2022-11-20T07:46:33;0.68;;;0.52;;
67100;SDS011;54019;61.746;16.106;2022-11-20T07:49:00;0.40;;;0.40;;
67100;SDS011;54019;61.746;16.106;2022-11-20T07:51:26;0.55;;;0.50;;
67100;SDS011;54019;61.746;16.106;2022-11-20T07:53:52;3.35;;;0.70;;
67100;SDS011;54019;61.746;16.106;2022-11-20T07:56:18;0.40;;;0.40;;
67100;SDS011;54019;61.746;16.106;2022-11-20T07:58:43;0.65;;;0.60;;
67100;SDS011;54019;61.746;16.106;2022-11-20T08:01:09;0.75;;;0.45;;
67100;SDS011;54019;61.746;16.106;2022-11-20T08:03:35;0.45;;;0.35;;
67100;SDS011;54019;61.746;16.106;2022-11-20T08:06:02;1.42;;;0.43;;
67100;SDS011;54019;61.746;16.106;2022-11-20T08:08:29;0.30;;;0.30;;
67100;SDS011;54019;61.746;16.106;2022-11-20T08:10:56;1.63;;;0.47;;
67100;SDS011;54019;61.746;16.106;2022-11-20T08:13:22;1.40;;;0.40;;
67100;SDS011;54019;61.746;16.106;2022-11-20T08:15:50;0.35;;;0.30;;
67100;SDS011;54019;61.746;16.106;2022-11-20T08:18:16;1.80;;;0.32;;
67100;SDS011;54019;61.746;16.106;2022-11-20T08:20:43;0.68;;;0.40;;
67100;SDS011;54019;61.746;16.106;2022-11-20T08:23:10;0.30;;;0.30;;
67100;SDS011;54019;61.746;16.106;2022-11-20T08:25:37;0.45;;;0.45;;
67100;SDS011;54019;61.746;16.106;2022-11-20T08:28:03;1.95;;;0.40;;
67100;SDS011;54019;61.746;16.106;2022-11-20T08:30:34;0.30;;;0.30;;
67100;SDS011;54019;61.746;16.106;2022-11-20T08:33:00;0.43;;;0.30;;
67100;SDS011;54019;61.746;16.106;2022-11-20T08:35:27;0.40;;;0.30;;
67100;SDS011;54019;61.746;16.106;2022-11-20T08:37:53;0.50;;;0.40;;
67100;SDS011;54019;61.746;16.106;2022-11-20T08:40:20;0.30;;;0.30;;
67100;SDS011;54019;61.746;16.106;2022-11-20T08:42:46;0.30;;;0.30;;
67100;SDS011;54019;61.746;16.106;2022-11-20T08:45:12;0.25;;;0.25;;
67100;SDS011;54019;61.746;16.106;2022-11-20T08:47:38;0.50;;;0.47;;
67100;SDS011;54019;61.746;16.106;2022-11-20T08:50:04;1.10;;;0.30;;
67100;SDS011;54019;61.746;16.106;2022-11-20T08:52:31;0.60;;;0.40;;
67100;SDS011;54019;61.746;16.106;2022-11-20T08:54:57;0.50;;;0.30;;
67100;SDS011;54019;61.746;16.106;2022-11-20T08:57:24;0.20;;;0.20;;
67100;SDS011;54019;61.746;16.106;2022-11-20T08:59:50;0.30;;;0.30;;
67100;SDS011;54019;61.746;16.106;2022-11-20T09:02:15;1.83;;;0.30;;
67100;SDS011;54019;61.746;16.106;2022-11-20T09:04:41;1.23;;;0.40;;
67100;SDS011;54019;61.746;16.106;2022-11-20T09:07:07;1.52;;;0.28;;
67100;SDS011;54019;61.746;16.106;2022-11-20T09:09:33;1.40;;;0.30;;
67100;SDS011;54019;61.746;16.106;2022-11-20T09:11:58;3.60;;;0.20;;
67100;SDS011;54019;61.746;16.106;2022-11-20T09:14:26;1.40;;;0.40;;
67100;SDS011;54019;61.746;16.106;2022-11-20T09:16:52;0.88;;;0.30;;
67100;SDS011;54019;61.746;16.106;2022-11-20T09:19:17;0.20;;;0.20;;
67100;SDS011;54019;61.746;16.106;2022-11-20T09:21:43;1.75;;;0.40;;
67100;SDS011;54019;61.746;16.106;2022-11-20T09:24:09;1.67;;;0.20;;
67100;SDS011;54019;61.746;16.106;2022-11-20T09:26:35;0.30;;;0.30;;
67100;SDS011;54019;61.746;16.106;2022-11-20T09:29:01;0.20;;;0.20;;
67100;SDS011;54019;61.746;16.106;2022-11-20T09:31:28;1.08;;;0.20;;
67100;SDS011;54019;61.746;16.106;2022-11-20T09:33:54;1.55;;;0.20;;
67100;SDS011;54019;61.746;16.106;2022-11-20T09:36:20;1.35;;;0.30;;
67100;SDS011;54019;61.746;16.106;2022-11-20T09:38:46;1.17;;;0.30;;
67100;SDS011;54019;61.746;16.106;2022-11-20T09:41:18;0.63;;;0.30;;
67100;SDS011;54019;61.746;16.106;2022-11-20T09:44:02;1.00;;;0.20;;
67100;SDS011;54019;61.746;16.106;2022-11-20T09:46:35;0.70;;;0.30;;
67100;SDS011;54019;61.746;16.106;2022-11-20T09:49:18;2.70;;;0.30;;
67100;SDS011;54019;61.746;16.106;2022-11-20T09:51:51;3.75;;;0.50;;
67100;SDS011;54019;61.746;16.106;2022-11-20T09:54:22;6.97;;;0.90;;
67100;SDS011;54019;61.746;16.106;2022-11-20T09:56:53;8.60;;;1.27;;
67100;SDS011;54019;61.746;16.106;2022-11-20T09:59:30;6.72;;;0.82;;
67100;SDS011;54019;61.746;16.106;2022-11-20T10:02:01;5.63;;;0.60;;
67100;SDS011;54019;61.746;16.106;2022-11-20T10:04:37;4.30;;;0.60;;
67100;SDS011;54019;61.746;16.106;2022-11-20T10:07:12;7.47;;;1.33;;
67100;SDS011;54019;61.746;16.106;2022-11-20T10:09:43;4.10;;;0.68;;
67100;SDS011;54019;61.746;16.106;2022-11-20T10:12:17;3.78;;;0.82;;
67100;SDS011;54019;61.746;16.106;2022-11-20T10:14:53;2.45;;;1.02;;
67100;SDS011;54019;61.746;16.106;2022-11-20T10:17:42;5.70;;;1.23;;
67100;SDS011;54019;61.746;16.106;2022-11-20T10:20:22;4.07;;;0.98;;
67100;SDS011;54019;61.746;16.106;2022-11-20T10:22:58;4.05;;;0.90;;
67100;SDS011;54019;61.746;16.106;2022-11-20T10:25:43;4.57;;;0.90;;
67100;SDS011;54019;61.746;16.106;2022-11-20T10:28:24;4.55;;;0.93;;
67100;SDS011;54019;61.746;16.106;2022-11-20T10:31:00;3.05;;;0.95;;
67100;SDS011;54019;61.746;16.106;2022-11-20T10:33:31;6.68;;;0.73;;
67100;SDS011;54019;61.746;16.106;2022-11-20T10:36:05;3.20;;;0.80;;
67100;SDS011;54019;61.746;16.106;2022-11-20T10:38:39;7.63;;;0.98;;
67100;SDS011;54019;61.746;16.106;2022-11-20T10:41:08;5.28;;;0.93;;
67100;SDS011;54019;61.746;16.106;2022-11-20T10:43:42;4.53;;;0.85;;
67100;SDS011;54019;61.746;16.106;2022-11-20T10:46:10;5.05;;;0.88;;
67100;SDS011;54019;61.746;16.106;2022-11-20T10:48:42;4.70;;;1.17;;
67100;SDS011;54019;61.746;16.106;2022-11-20T10:51:12;3.75;;;1.00;;
67100;SDS011;54019;61.746;16.106;2022-11-20T10:53:54;7.55;;;0.70;;
67100;SDS011;54019;61.746;16.106;2022-11-20T10:56:25;1.38;;;0.63;;
67100;SDS011;54019;61.746;16.106;2022-11-20T10:59:08;4.53;;;0.73;;
67100;SDS011;54019;61.746;16.106;2022-11-20T11:01:44;2.78;;;0.95;;
67100;SDS011;54019;61.746;16.106;2022-11-20T11:04:17;7.57;;;0.68;;
67100;SDS011;54019;61.746;16.106;2022-11-20T11:06:52;4.20;;;0.98;;
67100;SDS011;54019;61.746;16.106;2022-11-20T11:09:24;3.88;;;0.63;;
67100;SDS011;54019;61.746;16.106;2022-11-20T11:11:57;2.88;;;0.50;;
67100;SDS011;54019;61.746;16.106;2022-11-20T11:14:23;3.63;;;0.60;;
67100;SDS011;54019;61.746;16.106;2022-11-20T11:16:49;6.15;;;1.00;;
67100;SDS011;54019;61.746;16.106;2022-11-20T11:19:17;1.35;;;0.60;;
67100;SDS011;54019;61.746;16.106;2022-11-20T11:21:45;0.52;;;0.40;;
67100;SDS011;54019;61.746;16.106;2022-11-20T11:24:15;1.38;;;0.40;;
67100;SDS011;54019;61.746;16.106;2022-11-20T11:26:50;3.42;;;0.52;;
67100;SDS011;54019;61.746;16.106;2022-11-20T11:29:21;3.13;;;0.40;;
67100;SDS011;54019;61.746;16.106;2022-11-20T11:31:46;1.10;;;0.40;;
67100;SDS011;54019;61.746;16.106;2022-11-20T11:34:13;2.72;;;0.70;;
67100;SDS011;54019;61.746;16.106;2022-11-20T11:36:41;5.05;;;0.30;;
67100;SDS011;54019;61.746;16.106;2022-11-20T11:39:15;0.50;;;0.32;;
67100;SDS011;54019;61.746;16.106;2022-11-20T11:41:43;2.47;;;0.50;;
67100;SDS011;54019;61.746;16.106;2022-11-20T11:44:14;0.60;;;0.40;;
67100;SDS011;54019;61.746;16.106;2022-11-20T11:46:44;0.45;;;0.38;;
67100;SDS011;54019;61.746;16.106;2022-11-20T11:49:18;3.22;;;0.40;;
67100;SDS011;54019;61.746;16.106;2022-11-20T11:51:53;0.30;;;0.30;;
67100;SDS011;54019;61.746;16.106;2022-11-20T11:54:28;0.60;;;0.32;;
67100;SDS011;54019;61.746;16.106;2022-11-20T11:57:00;2.60;;;0.40;;
67100;SDS011;54019;61.746;16.106;2022-11-20T11:59:29;0.47;;;0.47;;
67100;SDS011;54019;61.746;16.106;2022-11-20T12:02:13;1.08;;;0.50;;
67100;SDS011;54019;61.746;16.106;2022-11-20T12:04:57;0.22;;;0.20;;
67100;SDS011;54019;61.746;16.106;2022-11-20T12:07:32;2.30;;;0.45;;
67100;SDS011;54019;61.746;16.106;2022-11-20T12:10:04;0.40;;;0.40;;
67100;SDS011;54019;61.746;16.106;2022-11-20T12:12:38;0.98;;;0.30;;
67100;SDS011;54019;61.746;16.106;2022-11-20T12:15:08;1.50;;;0.30;;
67100;SDS011;54019;61.746;16.106;2022-11-20T12:17:37;0.30;;;0.30;;
67100;SDS011;54019;61.746;16.106;2022-11-20T12:20:05;0.35;;;0.30;;
67100;SDS011;54019;61.746;16.106;2022-11-20T12:22:39;2.42;;;0.20;;
67100;SDS011;54019;61.746;16.106;2022-11-20T12:25:13;1.88;;;0.20;;
67100;SDS011;54019;61.746;16.106;2022-11-20T12:27:55;0.30;;;0.30;;
67100;SDS011;54019;61.746;16.106;2022-11-20T12:30:41;0.47;;;0.30;;
67100;SDS011;54019;61.746;16.106;2022-11-20T12:33:25;0.60;;;0.20;;
67100;SDS011;54019;61.746;16.106;2022-11-20T12:36:06;0.22;;;0.20;;
67100;SDS011;54019;61.746;16.106;2022-11-20T12:41:42;0.50;;;0.38;;
67100;SDS011;54019;61.746;16.106;2022-11-20T12:44:18;1.27;;;0.30;;
67100;SDS011;54019;61.746;16.106;2022-11-20T12:46:57;0.57;;;0.40;;
67100;SDS011;54019;61.746;16.106;2022-11-20T12:49:37;2.10;;;0.40;;
67100;SDS011;54019;61.746;16.106;2022-11-20T12:52:14;0.43;;;0.40;;
67100;SDS011;54019;61.746;16.106;2022-11-20T12:55:00;0.55;;;0.30;;
67100;SDS011;54019;61.746;16.106;2022-11-20T12:57:37;1.95;;;0.30;;
67100;SDS011;54019;61.746;16.106;2022-11-20T13:00:11;2.58;;;0.40;;
67100;SDS011;54019;61.746;16.106;2022-11-20T13:02:43;9.80;;;0.50;;
67100;SDS011;54019;61.746;16.106;2022-11-20T13:05:30;11.00;;;0.60;;
67100;SDS011;54019;61.746;16.106;2022-11-20T13:08:02;7.95;;;0.60;;
67100;SDS011;54019;61.746;16.106;2022-11-20T13:10:32;13.48;;;0.60;;
67100;SDS011;54019;61.746;16.106;2022-11-20T13:13:05;6.35;;;0.50;;
67100;SDS011;54019;61.746;16.106;2022-11-20T13:15:42;4.75;;;0.40;;
67100;SDS011;54019;61.746;16.106;2022-11-20T13:18:15;2.05;;;0.40;;
67100;SDS011;54019;61.746;16.106;2022-11-20T13:20:42;0.63;;;0.30;;
67100;SDS011;54019;61.746;16.106;2022-11-20T13:23:09;2.78;;;0.40;;
67100;SDS011;54019;61.746;16.106;2022-11-20T13:25:37;3.60;;;0.40;;
67100;SDS011;54019;61.746;16.106;2022-11-20T13:28:04;2.55;;;0.40;;
67100;SDS011;54019;61.746;16.106;2022-11-20T13:30:53;1.10;;;0.32;;
67100;SDS011;54019;61.746;16.106;2022-11-20T13:33:22;0.22;;;0.22;;
67100;SDS011;54019;61.746;16.106;2022-11-20T13:35:55;1.60;;;0.30;;
67100;SDS011;54019;61.746;16.106;2022-11-20T13:38:22;1.70;;;0.30;;
67100;SDS011;54019;61.746;16.106;2022-11-20T13:40:52;0.32;;;0.20;;
67100;SDS011;54019;61.746;16.106;2022-11-20T13:43:21;0.77;;;0.28;;
67100;SDS011;54019;61.746;16.106;2022-11-20T13:48:22;3.45;;;0.30;;
67100;SDS011;54019;61.746;16.106;2022-11-20T13:50:54;0.20;;;0.20;;
67100;SDS011;54019;61.746;16.106;2022-11-20T13:53:47;1.10;;;0.20;;
67100;SDS011;54019;61.746;16.106;2022-11-20T13:56:25;0.13;;;0.13;;
67100;SDS011;54019;61.746;16.106;2022-11-20T13:59:02;0.40;;;0.20;;
67100;SDS011;54019;61.746;16.106;2022-11-20T14:01:33;2.60;;;0.63;;
67100;SDS011;54019;61.746;16.106;2022-11-20T14:03:59;1.25;;;0.35;;
67100;SDS011;54019;61.746;16.106;2022-11-20T14:06:32;5.07;;;0.45;;
67100;SDS011;54019;61.746;16.106;2022-11-20T14:09:04;3.92;;;0.60;;
67100;SDS011;54019;61.746;16.106;2022-11-20T14:11:31;3.40;;;0.20;;
67100;SDS011;54019;61.746;16.106;2022-11-20T14:13:58;5.43;;;0.47;;
67100;SDS011;54019;61.746;16.106;2022-11-20T14:16:27;2.63;;;0.40;;
67100;SDS011;54019;61.746;16.106;2022-11-20T14:18:54;2.38;;;0.30;;
67100;SDS011;54019;61.746;16.106;2022-11-20T14:21:22;1.95;;;0.35;;
67100;SDS011;54019;61.746;16.106;2022-11-20T14:24:02;3.00;;;0.30;;
67100;SDS011;54019;61.746;16.106;2022-11-20T14:26:30;0.82;;;0.20;;
67100;SDS011;54019;61.746;16.106;2022-11-20T14:28:56;3.08;;;0.40;;
67100;SDS011;54019;61.746;16.106;2022-11-20T14:31:24;1.50;;;0.30;;
67100;SDS011;54019;61.746;16.106;2022-11-20T14:33:51;0.57;;;0.20;;
67100;SDS011;54019;61.746;16.106;2022-11-20T14:36:20;1.63;;;0.32;;
67100;SDS011;54019;61.746;16.106;2022-11-20T14:38:47;1.67;;;0.13;;
67100;SDS011;54019;61.746;16.106;2022-11-20T14:41:16;2.10;;;0.20;;
67100;SDS011;54019;61.746;16.106;2022-11-20T14:43:46;3.20;;;0.22;;
67100;SDS011;54019;61.746;16.106;2022-11-20T14:46:16;3.40;;;0.20;;
67100;SDS011;54019;61.746;16.106;2022-11-20T14:48:43;2.70;;;0.38;;
67100;SDS011;54019;61.746;16.106;2022-11-20T14:51:11;0.10;;;0.10;;